sensor_id;sensor_type;location;lat;lon;timestamp;P1;durP1;ratioP1;P2;durP2;ratioP2
57111;SDS011;42992;49.084;19.300;2023-10-19T01:27:31;18.60;;;11.60;;
57111;SDS011;42992;49.084;19.300;2023-10-19T01:32:42;15.07;;;9.02;;
57111;SDS011;42992;49.084;19.300;2023-10-19T01:42:11;20.52;;;9.95;;
57111;SDS011;42992;49.084;19.300;2023-10-19T01:45:27;18.00;;;10.25;;
57111;SDS011;42992;49.084;19.300;2023-10-19T01:54:18;20.15;;;12.05;;
57111;SDS011;42992;49.084;19.300;2023-10-19T02:16:29;15.00;;;9.68;;
57111;SDS011;42992;49.084;19.300;2023-10-19T02:19:38;15.65;;;8.98;;
57111;SDS011;42992;49.084;19.300;2023-10-19T02:25:38;16.63;;;10.23;;
57111;SDS011;42992;49.084;19.300;2023-10-19T02:34:41;18.73;;;8.73;;
57111;SDS011;42992;49.084;19.300;2023-10-19T02:37:14;12.27;;;7.65;;
57111;SDS011;42992;49.084;19.300;2023-10-19T02:55:24;11.20;;;7.53;;
57111;SDS011;42992;49.084;19.300;2023-10-19T03:10:19;11.60;;;7.05;;
57111;SDS011;42992;49.084;19.300;2023-10-19T03:13:23;11.25;;;7.00;;
57111;SDS011;42992;49.084;19.300;2023-10-19T03:28:27;13.18;;;7.07;;
57111;SDS011;42992;49.084;19.300;2023-10-19T03:31:12;13.68;;;7.63;;
57111;SDS011;42992;49.084;19.300;2023-10-19T03:34:00;13.48;;;7.38;;
57111;SDS011;42992;49.084;19.300;2023-10-19T03:36:45;12.00;;;6.82;;
57111;SDS011;42992;49.084;19.300;2023-10-19T03:39:11;12.13;;;7.80;;
57111;SDS011;42992;49.084;19.300;2023-10-19T03:44:48;18.23;;;9.55;;
57111;SDS011;42992;49.084;19.300;2023-10-19T03:50:49;12.80;;;6.60;;
57111;SDS011;42992;49.084;19.300;2023-10-19T03:53:54;12.20;;;6.32;;
57111;SDS011;42992;49.084;19.300;2023-10-19T03:56:58;9.30;;;6.30;;
57111;SDS011;42992;49.084;19.300;2023-10-19T03:59:45;15.27;;;6.88;;
57111;SDS011;42992;49.084;19.300;2023-10-19T04:02:11;13.50;;;6.60;;
57111;SDS011;42992;49.084;19.300;2023-10-19T04:04:55;14.73;;;7.68;;
57111;SDS011;42992;49.084;19.300;2023-10-19T04:07:23;13.75;;;7.45;;
57111;SDS011;42992;49.084;19.300;2023-10-19T04:09:54;13.07;;;7.90;;
57111;SDS011;42992;49.084;19.300;2023-10-19T04:12:31;13.07;;;7.38;;
57111;SDS011;42992;49.084;19.300;2023-10-19T04:14:58;17.45;;;7.93;;
57111;SDS011;42992;49.084;19.300;2023-10-19T04:17:35;12.65;;;7.78;;
57111;SDS011;42992;49.084;19.300;2023-10-19T04:20:02;14.55;;;7.78;;
57111;SDS011;42992;49.084;19.300;2023-10-19T04:22:49;12.63;;;7.18;;
57111;SDS011;42992;49.084;19.300;2023-10-19T04:25:16;12.65;;;7.75;;
57111;SDS011;42992;49.084;19.300;2023-10-19T04:27:45;12.55;;;8.40;;
57111;SDS011;42992;49.084;19.300;2023-10-19T04:30:11;13.85;;;8.77;;
57111;SDS011;42992;49.084;19.300;2023-10-19T04:32:49;14.35;;;8.80;;
57111;SDS011;42992;49.084;19.300;2023-10-19T04:35:15;14.38;;;8.63;;
57111;SDS011;42992;49.084;19.300;2023-10-19T04:40:36;16.52;;;9.48;;
57111;SDS011;42992;49.084;19.300;2023-10-19T04:43:02;17.10;;;10.32;;
57111;SDS011;42992;49.084;19.300;2023-10-19T04:45:30;16.27;;;10.00;;
57111;SDS011;42992;49.084;19.300;2023-10-19T04:47:56;17.00;;;9.52;;
57111;SDS011;42992;49.084;19.300;2023-10-19T04:50:22;14.80;;;9.02;;
57111;SDS011;42992;49.084;19.300;2023-10-19T04:52:50;18.05;;;8.80;;
57111;SDS011;42992;49.084;19.300;2023-10-19T04:55:16;16.52;;;9.95;;
57111;SDS011;42992;49.084;19.300;2023-10-19T04:57:46;15.57;;;9.23;;
57111;SDS011;42992;49.084;19.300;2023-10-19T05:00:12;15.73;;;9.25;;
57111;SDS011;42992;49.084;19.300;2023-10-19T05:02:38;18.52;;;9.50;;
57111;SDS011;42992;49.084;19.300;2023-10-19T05:05:04;15.02;;;8.93;;
57111;SDS011;42992;49.084;19.300;2023-10-19T05:07:32;17.15;;;9.85;;
57111;SDS011;42992;49.084;19.300;2023-10-19T05:10:03;17.50;;;9.45;;
57111;SDS011;42992;49.084;19.300;2023-10-19T05:12:30;18.65;;;9.65;;
57111;SDS011;42992;49.084;19.300;2023-10-19T05:17:41;20.60;;;10.40;;
57111;SDS011;42992;49.084;19.300;2023-10-19T05:20:07;21.05;;;10.05;;
57111;SDS011;42992;49.084;19.300;2023-10-19T05:22:37;21.33;;;11.45;;
57111;SDS011;42992;49.084;19.300;2023-10-19T05:25:05;21.35;;;10.60;;
57111;SDS011;42992;49.084;19.300;2023-10-19T05:27:33;21.17;;;10.70;;
57111;SDS011;42992;49.084;19.300;2023-10-19T05:29:59;16.95;;;10.02;;
57111;SDS011;42992;49.084;19.300;2023-10-19T05:32:25;22.23;;;10.57;;
57111;SDS011;42992;49.084;19.300;2023-10-19T05:34:51;20.20;;;10.35;;
57111;SDS011;42992;49.084;19.300;2023-10-19T05:37:16;17.10;;;10.15;;
57111;SDS011;42992;49.084;19.300;2023-10-19T05:39:45;17.65;;;10.95;;
57111;SDS011;42992;49.084;19.300;2023-10-19T05:42:11;16.92;;;10.68;;
57111;SDS011;42992;49.084;19.300;2023-10-19T05:44:37;18.42;;;11.27;;
57111;SDS011;42992;49.084;19.300;2023-10-19T05:47:27;21.65;;;11.38;;
57111;SDS011;42992;49.084;19.300;2023-10-19T05:49:54;21.65;;;11.65;;
57111;SDS011;42992;49.084;19.300;2023-10-19T05:52:20;22.95;;;11.95;;
57111;SDS011;42992;49.084;19.300;2023-10-19T05:54:58;15.15;;;10.55;;
57111;SDS011;42992;49.084;19.300;2023-10-19T05:57:49;17.20;;;10.95;;
57111;SDS011;42992;49.084;19.300;2023-10-19T06:00:17;19.35;;;11.18;;
57111;SDS011;42992;49.084;19.300;2023-10-19T06:03:04;16.35;;;9.70;;
57111;SDS011;42992;49.084;19.300;2023-10-19T06:05:33;14.20;;;8.60;;
57111;SDS011;42992;49.084;19.300;2023-10-19T06:08:08;18.42;;;8.75;;
57111;SDS011;42992;49.084;19.300;2023-10-19T06:10:36;21.27;;;10.23;;
57111;SDS011;42992;49.084;19.300;2023-10-19T06:13:07;15.23;;;8.85;;
57111;SDS011;42992;49.084;19.300;2023-10-19T06:15:35;22.33;;;9.10;;
57111;SDS011;42992;49.084;19.300;2023-10-19T06:18:22;14.00;;;9.13;;
57111;SDS011;42992;49.084;19.300;2023-10-19T06:20:48;19.02;;;8.82;;
57111;SDS011;42992;49.084;19.300;2023-10-19T06:23:15;15.52;;;9.70;;
57111;SDS011;42992;49.084;19.300;2023-10-19T06:25:45;17.38;;;9.02;;
57111;SDS011;42992;49.084;19.300;2023-10-19T06:28:13;16.38;;;9.57;;
57111;SDS011;42992;49.084;19.300;2023-10-19T06:30:40;15.13;;;8.40;;
57111;SDS011;42992;49.084;19.300;2023-10-19T06:33:09;14.57;;;8.40;;
57111;SDS011;42992;49.084;19.300;2023-10-19T06:35:35;11.48;;;8.02;;
57111;SDS011;42992;49.084;19.300;2023-10-19T06:38:03;20.98;;;9.95;;
57111;SDS011;42992;49.084;19.300;2023-10-19T06:40:30;13.43;;;8.52;;
57111;SDS011;42992;49.084;19.300;2023-10-19T06:42:58;10.30;;;7.00;;
57111;SDS011;42992;49.084;19.300;2023-10-19T06:45:31;14.07;;;6.95;;
57111;SDS011;42992;49.084;19.300;2023-10-19T06:47:57;10.10;;;6.38;;
57111;SDS011;42992;49.084;19.300;2023-10-19T06:50:25;11.73;;;6.43;;
57111;SDS011;42992;49.084;19.300;2023-10-19T06:52:51;14.88;;;6.63;;
57111;SDS011;42992;49.084;19.300;2023-10-19T06:55:20;9.43;;;6.43;;
57111;SDS011;42992;49.084;19.300;2023-10-19T06:57:52;9.98;;;5.60;;
57111;SDS011;42992;49.084;19.300;2023-10-19T07:00:23;9.57;;;6.60;;
57111;SDS011;42992;49.084;19.300;2023-10-19T07:02:55;11.40;;;6.97;;
57111;SDS011;42992;49.084;19.300;2023-10-19T07:05:24;7.90;;;6.07;;
57111;SDS011;42992;49.084;19.300;2023-10-19T07:07:51;8.77;;;5.50;;
57111;SDS011;42992;49.084;19.300;2023-10-19T07:10:21;12.40;;;6.93;;
57111;SDS011;42992;49.084;19.300;2023-10-19T07:12:47;15.55;;;7.63;;
57111;SDS011;42992;49.084;19.300;2023-10-19T07:15:14;11.80;;;6.80;;
57111;SDS011;42992;49.084;19.300;2023-10-19T07:17:47;8.82;;;4.85;;
57111;SDS011;42992;49.084;19.300;2023-10-19T07:20:18;9.15;;;5.88;;
57111;SDS011;42992;49.084;19.300;2023-10-19T07:22:51;7.57;;;5.20;;
57111;SDS011;42992;49.084;19.300;2023-10-19T07:25:20;7.65;;;4.88;;
57111;SDS011;42992;49.084;19.300;2023-10-19T07:27:59;6.93;;;4.53;;
57111;SDS011;42992;49.084;19.300;2023-10-19T07:30:27;7.35;;;4.45;;
57111;SDS011;42992;49.084;19.300;2023-10-19T07:32:54;6.28;;;4.28;;
57111;SDS011;42992;49.084;19.300;2023-10-19T07:35:27;6.45;;;3.90;;
57111;SDS011;42992;49.084;19.300;2023-10-19T07:37:53;8.32;;;4.75;;
57111;SDS011;42992;49.084;19.300;2023-10-19T07:40:28;8.52;;;5.60;;
57111;SDS011;42992;49.084;19.300;2023-10-19T07:43:15;9.95;;;5.90;;
57111;SDS011;42992;49.084;19.300;2023-10-19T07:45:54;7.38;;;5.10;;
57111;SDS011;42992;49.084;19.300;2023-10-19T07:48:24;7.50;;;3.47;;
57111;SDS011;42992;49.084;19.300;2023-10-19T07:53:24;6.55;;;3.03;;
57111;SDS011;42992;49.084;19.300;2023-10-19T07:55:50;6.57;;;3.70;;
57111;SDS011;42992;49.084;19.300;2023-10-19T07:58:18;5.95;;;3.20;;
57111;SDS011;42992;49.084;19.300;2023-10-19T08:00:48;6.63;;;3.05;;
57111;SDS011;42992;49.084;19.300;2023-10-19T08:03:17;6.75;;;3.28;;
57111;SDS011;42992;49.084;19.300;2023-10-19T08:06:26;6.35;;;2.97;;
57111;SDS011;42992;49.084;19.300;2023-10-19T08:09:30;5.88;;;3.28;;
57111;SDS011;42992;49.084;19.300;2023-10-19T08:12:36;5.50;;;2.72;;
57111;SDS011;42992;49.084;19.300;2023-10-19T08:15:34;5.80;;;3.10;;
57111;SDS011;42992;49.084;19.300;2023-10-19T08:18:04;8.55;;;3.50;;
57111;SDS011;42992;49.084;19.300;2023-10-19T08:23:21;4.45;;;2.55;;
57111;SDS011;42992;49.084;19.300;2023-10-19T08:26:12;4.82;;;2.58;;
57111;SDS011;42992;49.084;19.300;2023-10-19T08:28:43;5.88;;;2.83;;
57111;SDS011;42992;49.084;19.300;2023-10-19T08:31:10;4.32;;;2.50;;
57111;SDS011;42992;49.084;19.300;2023-10-19T08:38:41;5.93;;;3.13;;
57111;SDS011;42992;49.084;19.300;2023-10-19T08:41:33;8.20;;;3.20;;
57111;SDS011;42992;49.084;19.300;2023-10-19T08:44:10;4.90;;;2.85;;
57111;SDS011;42992;49.084;19.300;2023-10-19T10:57:02;8.18;;;1.50;;
57111;SDS011;42992;49.084;19.300;2023-10-19T10:59:31;3.67;;;1.55;;
57111;SDS011;42992;49.084;19.300;2023-10-19T11:01:59;3.70;;;1.60;;
57111;SDS011;42992;49.084;19.300;2023-10-19T11:04:25;5.18;;;1.52;;
57111;SDS011;42992;49.084;19.300;2023-10-19T11:06:52;4.25;;;1.60;;
57111;SDS011;42992;49.084;19.300;2023-10-19T11:09:23;4.20;;;1.77;;
57111;SDS011;42992;49.084;19.300;2023-10-19T11:11:55;4.95;;;2.22;;
57111;SDS011;42992;49.084;19.300;2023-10-19T11:15:00;5.63;;;2.08;;
57111;SDS011;42992;49.084;19.300;2023-10-19T11:17:28;3.35;;;1.80;;
57111;SDS011;42992;49.084;19.300;2023-10-19T11:19:58;4.22;;;1.35;;
57111;SDS011;42992;49.084;19.300;2023-10-19T11:22:26;3.60;;;1.73;;
57111;SDS011;42992;49.084;19.300;2023-10-19T11:28:27;5.60;;;1.73;;
57111;SDS011;42992;49.084;19.300;2023-10-19T11:31:20;3.38;;;1.58;;
57111;SDS011;42992;49.084;19.300;2023-10-19T11:36:53;4.18;;;1.98;;
57111;SDS011;42992;49.084;19.300;2023-10-19T11:39:22;4.30;;;1.73;;
57111;SDS011;42992;49.084;19.300;2023-10-19T11:42:12;4.55;;;1.88;;
57111;SDS011;42992;49.084;19.300;2023-10-19T11:44:40;3.97;;;1.90;;
57111;SDS011;42992;49.084;19.300;2023-10-19T11:47:05;5.47;;;2.25;;
57111;SDS011;42992;49.084;19.300;2023-10-19T11:49:31;5.03;;;1.92;;
57111;SDS011;42992;49.084;19.300;2023-10-19T11:51:56;5.80;;;2.08;;
57111;SDS011;42992;49.084;19.300;2023-10-19T11:54:27;4.45;;;2.00;;
57111;SDS011;42992;49.084;19.300;2023-10-19T11:56:53;7.63;;;2.10;;
57111;SDS011;42992;49.084;19.300;2023-10-19T12:02:14;5.03;;;2.10;;
57111;SDS011;42992;49.084;19.300;2023-10-19T12:04:48;4.50;;;2.45;;
57111;SDS011;42992;49.084;19.300;2023-10-19T12:07:29;5.63;;;2.53;;
57111;SDS011;42992;49.084;19.300;2023-10-19T12:10:16;4.57;;;2.20;;
57111;SDS011;42992;49.084;19.300;2023-10-19T12:12:44;4.18;;;2.33;;
57111;SDS011;42992;49.084;19.300;2023-10-19T12:18:14;5.00;;;2.45;;
57111;SDS011;42992;49.084;19.300;2023-10-19T12:27:11;9.55;;;3.00;;
57111;SDS011;42992;49.084;19.300;2023-10-19T12:48:36;3.50;;;1.50;;
57111;SDS011;42992;49.084;19.300;2023-10-19T12:51:22;3.72;;;1.85;;
57111;SDS011;42992;49.084;19.300;2023-10-19T12:54:20;4.07;;;2.00;;
57111;SDS011;42992;49.084;19.300;2023-10-19T12:57:16;3.63;;;1.75;;
57111;SDS011;42992;49.084;19.300;2023-10-19T13:03:10;5.47;;;1.77;;
57111;SDS011;42992;49.084;19.300;2023-10-19T13:06:14;5.05;;;1.90;;
57111;SDS011;42992;49.084;19.300;2023-10-19T13:09:00;3.80;;;1.95;;
57111;SDS011;42992;49.084;19.300;2023-10-19T13:15:11;4.75;;;2.45;;
57111;SDS011;42992;49.084;19.300;2023-10-19T13:21:06;5.30;;;2.75;;
57111;SDS011;42992;49.084;19.300;2023-10-19T13:33:34;6.20;;;3.42;;
57111;SDS011;42992;49.084;19.300;2023-10-19T13:39:38;6.95;;;3.75;;
57111;SDS011;42992;49.084;19.300;2023-10-19T14:15:40;9.52;;;5.28;;
57111;SDS011;42992;49.084;19.300;2023-10-19T14:21:47;10.50;;;5.20;;
57111;SDS011;42992;49.084;19.300;2023-10-19T14:24:47;9.48;;;5.28;;
57111;SDS011;42992;49.084;19.300;2023-10-19T14:27:41;9.63;;;5.55;;
57111;SDS011;42992;49.084;19.300;2023-10-19T14:34:06;9.55;;;5.90;;
57111;SDS011;42992;49.084;19.300;2023-10-19T14:39:35;9.10;;;6.00;;
57111;SDS011;42992;49.084;19.300;2023-10-19T15:22:44;14.40;;;9.05;;
57111;SDS011;42992;49.084;19.300;2023-10-19T15:25:31;16.50;;;9.55;;
57111;SDS011;42992;49.084;19.300;2023-10-19T16:01:44;19.48;;;12.18;;
57111;SDS011;42992;49.084;19.300;2023-10-19T16:45:53;23.85;;;15.93;;
57111;SDS011;42992;49.084;19.300;2023-10-19T16:51:18;25.15;;;15.65;;
57111;SDS011;42992;49.084;19.300;2023-10-19T16:58:09;23.45;;;16.20;;
57111;SDS011;42992;49.084;19.300;2023-10-19T17:06:31;27.92;;;17.30;;
57111;SDS011;42992;49.084;19.300;2023-10-19T17:13:00;21.52;;;15.43;;
57111;SDS011;42992;49.084;19.300;2023-10-19T17:54:15;20.92;;;14.02;;
57111;SDS011;42992;49.084;19.300;2023-10-19T18:12:28;20.65;;;14.15;;
57111;SDS011;42992;49.084;19.300;2023-10-19T18:21:31;23.02;;;14.98;;
57111;SDS011;42992;49.084;19.300;2023-10-19T18:36:26;24.88;;;16.70;;
57111;SDS011;42992;49.084;19.300;2023-10-19T18:48:29;25.42;;;17.50;;
57111;SDS011;42992;49.084;19.300;2023-10-19T19:03:51;30.88;;;19.60;;
57111;SDS011;42992;49.084;19.300;2023-10-19T19:06:46;32.45;;;21.60;;
57111;SDS011;42992;49.084;19.300;2023-10-19T19:37:27;30.40;;;21.60;;
57111;SDS011;42992;49.084;19.300;2023-10-19T19:49:45;25.25;;;19.50;;
57111;SDS011;42992;49.084;19.300;2023-10-19T19:58:30;23.30;;;15.52;;
57111;SDS011;42992;49.084;19.300;2023-10-19T20:09:50;31.75;;;23.60;;
